createdAt,value
2023-09-08T00:02:26.833Z,76.50
2023-09-08T00:04:54.709Z,76.60
2023-09-08T00:07:22.041Z,76.50
2023-09-08T00:09:49.181Z,76.60
2023-09-08T00:12:16.346Z,76.90
2023-09-08T00:14:43.696Z,77.10
2023-09-08T00:17:10.806Z,77.20
2023-09-08T00:19:38.036Z,77.30
2023-09-08T00:22:07.446Z,77.40
2023-09-08T00:24:35.263Z,77.60
2023-09-08T00:27:02.502Z,77.70
2023-09-08T00:29:29.732Z,77.80
2023-09-08T00:31:57.036Z,77.70
2023-09-08T00:34:24.058Z,77.70
2023-09-08T00:36:52.226Z,77.60
2023-09-08T00:39:19.418Z,77.60
2023-09-08T00:41:46.469Z,77.70
2023-09-08T00:44:13.628Z,77.70
2023-09-08T00:46:41.515Z,77.60
2023-09-08T00:49:10.283Z,77.40
2023-09-08T00:51:39.210Z,77.60
2023-09-08T00:54:07.686Z,77.70
2023-09-08T00:56:37.264Z,77.90
2023-09-08T00:59:05.429Z,77.90
2023-09-08T01:01:32.814Z,78.10
2023-09-08T01:03:59.868Z,78.10
2023-09-08T01:06:28.417Z,78.10
2023-09-08T01:08:56.457Z,78.40
2023-09-08T01:11:25.092Z,78.60
2023-09-08T01:13:52.045Z,78.70
2023-09-08T01:16:19.256Z,78.80
2023-09-08T01:18:49.731Z,79.00
2023-09-08T01:22:03.590Z,78.90
2023-09-08T01:24:58.142Z,78.70
2023-09-08T01:27:26.748Z,78.50
2023-09-08T01:29:55.457Z,78.40
2023-09-08T01:32:23.115Z,78.50
2023-09-08T01:34:50.530Z,78.60
2023-09-08T01:37:17.537Z,78.50
2023-09-08T01:39:44.475Z,78.50
2023-09-08T01:42:11.468Z,78.50
2023-09-08T01:44:38.529Z,78.50
2023-09-08T01:47:05.599Z,78.70
2023-09-08T01:49:32.582Z,78.70
2023-09-08T01:51:59.624Z,79.00
2023-09-08T01:54:26.730Z,79.10
2023-09-08T01:56:53.706Z,79.20
2023-09-08T01:59:20.638Z,79.40
2023-09-08T02:01:47.737Z,79.30
2023-09-08T02:04:14.786Z,79.30
2023-09-08T02:06:42.134Z,79.40
2023-09-08T02:09:13.011Z,79.60
2023-09-08T02:11:40.142Z,79.70
2023-09-08T02:14:08.039Z,79.80
2023-09-08T02:16:35.047Z,79.90
2023-09-08T02:19:02.096Z,79.70
2023-09-08T02:21:29.327Z,79.80
2023-09-08T02:23:56.410Z,79.80
2023-09-08T02:26:23.785Z,80.00
2023-09-08T02:28:50.731Z,80.10
2023-09-08T02:31:19.264Z,80.10
2023-09-08T02:33:46.460Z,80.20
2023-09-08T02:36:13.542Z,80.10
2023-09-08T02:38:41.769Z,79.90
2023-09-08T02:41:09.356Z,79.70
2023-09-08T02:43:36.304Z,79.90
2023-09-08T02:46:04.299Z,79.80
2023-09-08T02:48:32.361Z,79.60
2023-09-08T02:50:59.681Z,79.70
2023-09-08T02:53:29.697Z,79.60
2023-09-08T02:55:57.328Z,79.40
2023-09-08T02:58:24.476Z,79.50
2023-09-08T03:00:53.163Z,79.40
2023-09-08T03:03:20.851Z,79.60
2023-09-08T03:05:48.124Z,79.80
2023-09-08T03:08:15.270Z,79.90
2023-09-08T03:10:43.069Z,79.90
2023-09-08T03:13:09.998Z,80.10
2023-09-08T03:15:37.651Z,80.10
2023-09-08T03:18:04.978Z,80.00
2023-09-08T03:20:32.276Z,80.00
2023-09-08T03:23:00.160Z,80.00
2023-09-08T03:25:27.270Z,79.80
2023-09-08T03:27:54.197Z,79.80
2023-09-08T03:30:21.245Z,79.70
2023-09-08T03:32:48.265Z,79.80
2023-09-08T03:35:15.408Z,79.90
2023-09-08T03:37:43.357Z,80.00
2023-09-08T03:40:10.794Z,80.00
2023-09-08T03:42:37.976Z,80.00
2023-09-08T03:45:05.649Z,80.10
2023-09-08T03:47:32.794Z,80.30
2023-09-08T03:49:59.923Z,80.60
2023-09-08T03:52:27.337Z,80.80
2023-09-08T03:54:54.289Z,80.90
2023-09-08T03:57:21.328Z,80.90
2023-09-08T03:59:48.306Z,81.00
2023-09-08T04:02:15.380Z,81.20
2023-09-08T04:04:42.350Z,81.20
2023-09-08T04:07:09.900Z,81.30
2023-09-08T04:09:36.952Z,81.30
2023-09-08T04:12:04.116Z,81.20
2023-09-08T04:14:32.336Z,81.30
2023-09-08T04:16:59.400Z,81.40
2023-09-08T04:19:27.210Z,81.40
2023-09-08T04:21:54.188Z,81.40
2023-09-08T04:24:21.803Z,81.30
2023-09-08T04:26:48.920Z,81.30
2023-09-08T04:29:16.101Z,81.30
2023-09-08T04:31:43.340Z,81.30
2023-09-08T04:34:10.461Z,81.30
2023-09-08T04:36:37.491Z,81.30
2023-09-08T04:39:04.728Z,81.10
2023-09-08T04:41:31.903Z,81.20
2023-09-08T04:43:59.537Z,81.10
2023-09-08T04:46:26.807Z,81.10
2023-09-08T04:48:54.014Z,80.90
2023-09-08T04:51:23.088Z,80.80
2023-09-08T04:53:50.612Z,80.70
2023-09-08T04:56:17.864Z,80.70
2023-09-08T04:58:45.055Z,80.40
2023-09-08T05:01:13.294Z,80.40
2023-09-08T05:03:40.814Z,80.30
2023-09-08T05:06:08.818Z,80.20
2023-09-08T05:08:36.028Z,80.10
2023-09-08T05:11:03.945Z,80.00
2023-09-08T05:13:32.266Z,79.90
2023-09-08T05:16:12.186Z,79.80
2023-09-08T05:18:43.174Z,79.80
2023-09-08T05:21:10.693Z,79.40
2023-09-08T05:23:37.994Z,79.70
2023-09-08T05:26:05.057Z,79.50
2023-09-08T05:28:32.192Z,79.30
2023-09-08T05:30:59.299Z,79.50
2023-09-08T05:33:26.459Z,79.50
2023-09-08T05:35:53.999Z,79.30
2023-09-08T05:38:21.157Z,79.20
2023-09-08T05:40:48.252Z,79.30
2023-09-08T05:43:15.957Z,79.20
2023-09-08T05:45:43.305Z,79.30
2023-09-08T05:48:10.746Z,78.80
2023-09-08T05:50:38.683Z,78.80
2023-09-08T05:53:07.415Z,78.70
2023-09-08T05:55:34.441Z,78.40
2023-09-08T05:58:01.625Z,78.40
2023-09-08T06:00:28.724Z,78.20
2023-09-08T06:02:56.098Z,78.10
2023-09-08T06:05:23.248Z,77.80
2023-09-08T06:08:01.378Z,77.30
2023-09-08T06:10:34.044Z,77.10
2023-09-08T06:13:02.588Z,76.80
2023-09-08T06:15:30.253Z,76.70
2023-09-08T06:17:57.620Z,76.60
2023-09-08T06:20:26.094Z,76.30
2023-09-08T06:22:53.952Z,75.80
2023-09-08T06:25:21.156Z,75.60
2023-09-08T06:27:48.625Z,75.60
2023-09-08T06:30:17.458Z,75.50
2023-09-08T06:32:44.771Z,75.30
2023-09-08T06:35:12.368Z,74.90
2023-09-08T06:37:40.216Z,74.40
2023-09-08T06:40:08.440Z,74.60
2023-09-08T06:42:35.830Z,73.50
2023-09-08T06:45:14.810Z,73.90
2023-09-08T06:47:41.961Z,74.20
2023-09-08T06:50:09.461Z,73.80
2023-09-08T06:52:36.773Z,73.00
2023-09-08T06:55:04.308Z,73.50
2023-09-08T06:57:31.402Z,72.90
2023-09-08T06:59:58.475Z,72.90
2023-09-08T07:02:25.852Z,72.00
2023-09-08T07:04:53.220Z,71.80
2023-09-08T07:07:21.688Z,71.80
2023-09-08T07:09:49.661Z,71.60
2023-09-08T07:12:16.845Z,72.00
2023-09-08T07:14:44.238Z,71.40
2023-09-08T07:17:11.403Z,71.00
2023-09-08T07:19:38.885Z,71.10
2023-09-08T07:22:07.691Z,71.60
2023-09-08T07:24:34.785Z,70.90
2023-09-08T07:27:02.888Z,70.50
2023-09-08T07:29:30.720Z,70.00
2023-09-08T07:31:57.993Z,70.60
2023-09-08T07:34:25.146Z,70.50
2023-09-08T07:36:52.818Z,71.00
2023-09-08T07:39:20.001Z,70.10
2023-09-08T07:41:47.168Z,69.10
2023-09-08T07:44:14.607Z,70.40
2023-09-08T07:46:41.957Z,71.30
2023-09-08T07:49:08.951Z,69.40
2023-09-08T07:51:35.957Z,68.80
2023-09-08T07:54:04.946Z,69.10
2023-09-08T07:56:32.008Z,68.10
2023-09-08T07:58:59.047Z,68.30
2023-09-08T08:01:26.273Z,68.10
2023-09-08T08:03:53.315Z,68.40
2023-09-08T08:06:20.485Z,65.90
2023-09-08T08:08:47.509Z,67.80
2023-09-08T08:11:18.787Z,66.70
2023-09-08T08:13:47.196Z,66.70
2023-09-08T08:16:14.270Z,66.00
2023-09-08T08:18:41.775Z,66.20
2023-09-08T08:21:09.068Z,65.60
2023-09-08T08:23:37.292Z,64.80
2023-09-08T08:26:04.651Z,64.20
2023-09-08T08:28:31.793Z,64.10
2023-09-08T08:30:59.017Z,63.70
2023-09-08T08:33:27.176Z,62.60
2023-09-08T08:35:55.007Z,61.20
2023-09-08T08:38:22.160Z,60.10
2023-09-08T08:40:49.231Z,61.60
2023-09-08T08:43:16.536Z,61.50
2023-09-08T08:45:45.512Z,59.90
2023-09-08T08:48:15.342Z,58.80
2023-09-08T08:50:44.349Z,57.20
2023-09-08T08:53:13.703Z,57.20
2023-09-08T08:55:41.918Z,58.10
2023-09-08T08:58:09.048Z,58.40
2023-09-08T09:00:40.300Z,58.10
2023-09-08T09:03:15.444Z,59.90
2023-09-08T09:05:47.945Z,58.40
2023-09-08T09:08:18.726Z,58.00
2023-09-08T09:10:45.716Z,57.10
2023-09-08T09:13:12.739Z,57.80
2023-09-08T09:15:39.768Z,56.70
2023-09-08T09:18:09.027Z,57.00
2023-09-08T09:20:36.382Z,56.70
2023-09-08T09:23:04.644Z,56.50
2023-09-08T09:25:32.890Z,56.90
2023-09-08T09:28:02.708Z,56.30
2023-09-08T09:30:52.381Z,57.30
2023-09-08T09:33:19.681Z,57.20
2023-09-08T09:35:49.263Z,56.00
2023-09-08T09:38:16.744Z,55.70
2023-09-08T09:40:43.745Z,54.40
2023-09-08T09:43:12.780Z,56.60
2023-09-08T09:45:41.468Z,54.70
2023-09-08T09:48:10.160Z,55.10
2023-09-08T09:50:41.853Z,56.80
2023-09-08T09:53:12.213Z,53.30
2023-09-08T09:55:41.245Z,52.80
2023-09-08T09:58:11.659Z,53.30
2023-09-08T10:00:41.805Z,52.80
2023-09-08T10:03:09.628Z,53.20
2023-09-08T10:05:38.031Z,53.00
2023-09-08T10:08:05.547Z,53.00
2023-09-08T10:10:33.885Z,52.90
2023-09-08T10:13:06.637Z,53.80
2023-09-08T10:15:34.747Z,53.70
2023-09-08T10:18:06.152Z,55.20
2023-09-08T10:20:34.833Z,54.70
2023-09-08T10:23:23.795Z,53.80
2023-09-08T10:25:55.733Z,53.90
2023-09-08T10:28:27.149Z,54.20
2023-09-08T10:30:54.955Z,54.70
2023-09-08T10:33:25.155Z,57.50
2023-09-08T10:35:53.045Z,54.50
2023-09-08T10:38:27.802Z,53.70
2023-09-08T10:41:15.274Z,54.30
2023-09-08T10:43:44.344Z,55.30
2023-09-08T10:46:22.092Z,54.30
2023-09-08T10:48:49.261Z,54.10
2023-09-08T10:51:18.495Z,55.70
2023-09-08T10:53:49.683Z,54.50
2023-09-08T10:56:18.479Z,53.40
2023-09-08T10:58:51.522Z,55.80
2023-09-08T11:01:28.742Z,54.00
2023-09-08T11:03:56.422Z,55.30
2023-09-08T11:06:23.816Z,53.20
2023-09-08T11:08:56.933Z,54.10
2023-09-08T11:11:24.393Z,53.20
2023-09-08T11:13:51.469Z,52.00
2023-09-08T11:16:23.120Z,53.30
2023-09-08T11:18:52.648Z,52.50
2023-09-08T11:21:20.016Z,52.60
2023-09-08T11:23:47.160Z,52.10
2023-09-08T11:26:14.560Z,51.00
2023-09-08T11:28:43.190Z,50.80
2023-09-08T11:31:13.973Z,51.80
2023-09-08T11:33:42.953Z,53.60
2023-09-08T11:36:16.237Z,52.20
2023-09-08T11:38:46.278Z,52.10
2023-09-08T11:41:13.674Z,52.70
2023-09-08T11:43:41.091Z,52.60
2023-09-08T11:46:08.430Z,52.90
2023-09-08T11:48:36.639Z,53.90
2023-09-08T11:51:04.093Z,52.70
2023-09-08T11:53:33.169Z,52.40
2023-09-08T11:56:00.469Z,51.90
2023-09-08T11:58:27.657Z,53.30
2023-09-08T12:00:55.028Z,52.50
2023-09-08T12:03:22.037Z,51.90
2023-09-08T12:05:53.099Z,50.90
2023-09-08T12:08:20.613Z,52.30
2023-09-08T12:10:47.867Z,52.60
2023-09-08T12:13:22.538Z,52.60
2023-09-08T12:15:49.983Z,52.30
2023-09-08T12:18:17.210Z,53.40
2023-09-08T12:20:45.181Z,52.80
2023-09-08T12:23:20.767Z,52.70
2023-09-08T12:25:52.834Z,51.70
2023-09-08T12:28:23.502Z,49.90
2023-09-08T12:30:51.848Z,49.70
2023-09-08T12:33:21.381Z,51.00
2023-09-08T12:35:49.706Z,50.20
2023-09-08T12:38:16.674Z,50.90
2023-09-08T12:40:43.861Z,50.80
2023-09-08T12:43:22.994Z,51.10
2023-09-08T12:45:55.992Z,50.60
2023-09-08T12:48:23.710Z,51.00
2023-09-08T12:50:51.026Z,49.90
2023-09-08T12:53:19.507Z,51.90
2023-09-08T12:55:47.472Z,51.90
2023-09-08T12:58:14.449Z,52.00
2023-09-08T13:00:41.474Z,50.40
2023-09-08T13:03:08.495Z,51.30
2023-09-08T13:05:35.813Z,51.20
2023-09-08T13:08:02.881Z,50.80
2023-09-08T13:10:29.931Z,52.70
2023-09-08T13:12:56.864Z,51.30
2023-09-08T13:15:25.152Z,51.70
2023-09-08T13:17:52.586Z,51.50
2023-09-08T13:20:20.872Z,51.70
2023-09-08T13:22:47.971Z,50.90
2023-09-08T13:25:15.203Z,51.10
2023-09-08T13:27:45.515Z,51.50
2023-09-08T13:30:14.919Z,50.80
2023-09-08T13:32:42.705Z,51.20
2023-09-08T13:35:09.971Z,51.90
2023-09-08T13:37:39.004Z,52.60
2023-09-08T13:40:07.012Z,52.60
2023-09-08T13:42:34.222Z,53.40
2023-09-08T13:45:01.849Z,53.10
2023-09-08T13:47:29.914Z,53.20
2023-09-08T13:49:59.112Z,52.30
2023-09-08T13:52:29.104Z,52.00
2023-09-08T13:57:30.819Z,52.40
2023-09-08T13:59:58.668Z,51.70
2023-09-08T14:05:02.680Z,52.70
2023-09-08T14:10:06.095Z,53.40
2023-09-08T14:12:43.014Z,52.40
2023-09-08T14:15:10.723Z,52.70
2023-09-08T14:17:37.725Z,52.40
2023-09-08T14:20:06.921Z,52.60
2023-09-08T14:22:34.000Z,53.70
2023-09-08T14:25:00.936Z,53.60
2023-09-08T14:27:27.883Z,51.40
2023-09-08T14:29:56.118Z,51.60
2023-09-08T14:32:23.272Z,51.70
2023-09-08T14:34:50.374Z,52.30
2023-09-08T14:37:17.405Z,53.60
2023-09-08T14:39:44.283Z,52.30
2023-09-08T14:42:11.343Z,52.80
2023-09-08T14:44:38.334Z,53.40
2023-09-08T14:47:05.313Z,53.70
2023-09-08T14:49:32.323Z,52.10
2023-09-08T14:51:59.413Z,52.50
2023-09-08T14:54:27.494Z,53.20
2023-09-08T14:56:55.372Z,54.20
2023-09-08T14:59:22.716Z,53.80
2023-09-08T15:01:52.292Z,54.70
2023-09-08T15:04:19.410Z,53.50
2023-09-08T15:06:46.441Z,53.80
2023-09-08T15:09:13.628Z,53.60
2023-09-08T15:11:40.659Z,53.40
2023-09-08T15:14:07.836Z,53.70
2023-09-08T15:16:34.860Z,54.10
2023-09-08T15:19:01.851Z,54.40
2023-09-08T15:21:31.029Z,54.30
2023-09-08T15:23:58.067Z,54.70
2023-09-08T15:26:25.196Z,54.40
2023-09-08T15:28:53.592Z,55.00
2023-09-08T15:31:20.824Z,55.00
2023-09-08T15:33:48.049Z,55.00
2023-09-08T15:36:16.925Z,56.10
2023-09-08T15:38:44.065Z,55.00
2023-09-08T15:41:12.130Z,54.90
2023-09-08T15:43:40.935Z,55.30
2023-09-08T15:46:09.199Z,55.60
2023-09-08T15:48:37.814Z,55.60
2023-09-08T15:51:05.588Z,56.20
2023-09-08T15:53:35.526Z,56.50
2023-09-08T15:56:02.856Z,56.00
2023-09-08T15:58:29.947Z,56.40
2023-09-08T16:00:57.062Z,56.40
2023-09-08T16:03:24.358Z,56.10
2023-09-08T16:05:51.623Z,56.20
2023-09-08T16:08:18.598Z,56.20
2023-09-08T16:10:47.176Z,56.80
2023-09-08T16:13:14.270Z,56.50
2023-09-08T16:15:41.294Z,56.70
2023-09-08T16:18:10.901Z,57.20
2023-09-08T16:20:41.899Z,57.50
2023-09-08T16:23:10.174Z,57.60
2023-09-08T16:25:37.192Z,58.30
2023-09-08T16:28:04.502Z,58.00
2023-09-08T16:30:31.402Z,58.10
2023-09-08T16:32:58.566Z,58.30
2023-09-08T16:35:26.908Z,59.50
2023-09-08T16:37:53.958Z,59.50
2023-09-08T16:40:23.432Z,59.80
2023-09-08T16:42:50.792Z,59.60
2023-09-08T16:45:17.864Z,59.60
2023-09-08T16:47:44.949Z,60.50
2023-09-08T16:50:12.045Z,60.10
2023-09-08T16:52:39.103Z,59.90
2023-09-08T16:55:12.131Z,60.30
2023-09-08T16:57:42.493Z,61.00
2023-09-08T17:00:09.887Z,61.50
2023-09-08T17:02:38.017Z,62.00
2023-09-08T17:05:05.878Z,62.00
2023-09-08T17:07:33.354Z,62.80
2023-09-08T17:10:00.777Z,63.00
2023-09-08T17:12:28.089Z,63.50
2023-09-08T17:14:55.667Z,63.50
2023-09-08T17:17:22.977Z,63.50
2023-09-08T17:19:49.926Z,63.70
2023-09-08T17:22:16.885Z,64.40
2023-09-08T17:24:43.975Z,64.80
2023-09-08T17:27:11.293Z,65.40
2023-09-08T17:29:38.643Z,66.20
2023-09-08T17:32:06.220Z,66.80
2023-09-08T17:34:33.219Z,67.40
2023-09-08T17:37:03.700Z,68.00
2023-09-08T17:39:30.979Z,68.10
2023-09-08T17:41:57.906Z,68.40
2023-09-08T17:44:25.113Z,68.60
2023-09-08T17:46:52.257Z,68.90
2023-09-08T17:49:19.368Z,68.50
2023-09-08T17:51:46.330Z,68.60
2023-09-08T17:54:13.589Z,69.00
2023-09-08T17:56:40.572Z,69.30
2023-09-08T17:59:07.723Z,69.40
2023-09-08T18:01:37.935Z,69.30
2023-09-08T18:04:05.514Z,69.10
2023-09-08T18:06:32.654Z,68.90
2023-09-08T18:08:59.757Z,69.20
2023-09-08T18:11:26.868Z,69.30
2023-09-08T18:13:53.978Z,69.50
2023-09-08T18:16:20.981Z,69.60
2023-09-08T18:18:48.443Z,69.70
2023-09-08T18:21:15.460Z,69.90
2023-09-08T18:23:42.900Z,70.10
2023-09-08T18:26:10.026Z,69.90
2023-09-08T18:28:37.015Z,69.90
2023-09-08T18:31:04.206Z,70.20
2023-09-08T18:33:31.382Z,70.60
2023-09-08T18:35:58.904Z,70.70
2023-09-08T18:38:26.655Z,71.10
2023-09-08T18:40:53.866Z,71.30
2023-09-08T18:43:21.125Z,71.30
2023-09-08T18:45:48.514Z,71.50
2023-09-08T18:48:15.631Z,71.60
2023-09-08T18:50:43.209Z,71.70
2023-09-08T18:53:11.199Z,71.80
2023-09-08T18:55:38.197Z,71.80
2023-09-08T18:58:06.461Z,71.80
2023-09-08T19:00:33.745Z,72.10
2023-09-08T19:03:04.409Z,72.30
2023-09-08T19:05:31.543Z,72.50
2023-09-08T19:07:58.538Z,72.30
2023-09-08T19:10:25.505Z,72.50
2023-09-08T19:12:52.482Z,72.50
2023-09-08T19:15:19.441Z,72.80
2023-09-08T19:17:46.894Z,72.90
2023-09-08T19:20:14.050Z,72.90
2023-09-08T19:22:41.179Z,73.00
2023-09-08T19:25:09.556Z,73.10
2023-09-08T19:27:37.343Z,73.40
2023-09-08T19:30:07.178Z,73.30
2023-09-08T19:32:34.500Z,73.30
2023-09-08T19:35:01.505Z,73.40
2023-09-08T19:37:28.628Z,73.60
2023-09-08T19:39:55.647Z,73.70
2023-09-08T19:42:22.738Z,73.70
2023-09-08T19:44:49.653Z,73.40
2023-09-08T19:47:16.740Z,73.70
2023-09-08T19:49:43.920Z,74.10
2023-09-08T19:52:15.809Z,74.40
2023-09-08T19:54:42.852Z,74.80
2023-09-08T19:57:10.160Z,74.80
2023-09-08T19:59:37.586Z,74.60
2023-09-08T20:02:04.727Z,74.70
2023-09-08T20:04:31.725Z,74.50
2023-09-08T20:06:58.790Z,74.60
2023-09-08T20:09:26.682Z,74.60
2023-09-08T20:11:54.045Z,74.70
2023-09-08T20:14:21.174Z,75.10
2023-09-08T20:16:48.241Z,75.20
2023-09-08T20:19:15.285Z,75.60
2023-09-08T20:21:42.266Z,75.70
2023-09-08T20:24:09.516Z,75.90
2023-09-08T20:26:36.676Z,75.90
2023-09-08T20:29:03.787Z,76.20
2023-09-08T20:31:31.090Z,76.30
2023-09-08T20:33:58.119Z,76.40
2023-09-08T20:36:25.096Z,76.40
2023-09-08T20:38:52.140Z,76.40
2023-09-08T20:41:19.203Z,76.50
2023-09-08T20:43:47.472Z,76.40
2023-09-08T20:46:14.626Z,76.40
2023-09-08T20:48:41.884Z,76.50
2023-09-08T20:51:10.782Z,76.80
2023-09-08T20:53:40.433Z,77.10
2023-09-08T20:56:11.376Z,77.20
2023-09-08T20:58:40.106Z,77.10
2023-09-08T21:01:07.342Z,76.90
2023-09-08T21:03:36.162Z,76.80
2023-09-08T21:06:03.840Z,76.90
2023-09-08T21:08:33.424Z,76.80
2023-09-08T21:11:00.523Z,76.60
2023-09-08T21:13:27.590Z,76.60
2023-09-08T21:15:54.674Z,76.50
2023-09-08T21:18:21.784Z,76.60
2023-09-08T21:20:49.545Z,76.80
2023-09-08T21:23:18.230Z,76.90
2023-09-08T21:25:45.328Z,77.00
2023-09-08T21:28:12.360Z,77.20
2023-09-08T21:30:39.497Z,77.50
2023-09-08T21:33:07.025Z,77.70
2023-09-08T21:35:34.189Z,77.80
2023-09-08T21:38:01.136Z,77.90
2023-09-08T21:40:28.225Z,77.80
2023-09-08T21:42:55.314Z,78.10
2023-09-08T21:45:22.326Z,78.20
2023-09-08T21:47:51.461Z,78.40
2023-09-08T21:50:19.172Z,78.50
2023-09-08T21:52:46.575Z,79.00
2023-09-08T21:55:14.291Z,79.20
2023-09-08T21:57:41.613Z,79.10
2023-09-08T22:00:12.539Z,79.30
2023-09-08T22:02:39.834Z,79.20
2023-09-08T22:05:07.318Z,79.10
2023-09-08T22:07:34.609Z,79.10
2023-09-08T22:10:01.725Z,79.20
2023-09-08T22:12:28.831Z,79.30
2023-09-08T22:14:56.735Z,79.40
2023-09-08T22:17:24.006Z,79.60
2023-09-08T22:19:54.030Z,79.40
2023-09-08T22:22:21.062Z,79.40
2023-09-08T22:24:48.085Z,79.60
2023-09-08T22:27:15.751Z,79.80
2023-09-08T22:29:42.710Z,79.70
2023-09-08T22:32:09.754Z,79.50
2023-09-08T22:34:36.815Z,79.60
2023-09-08T22:37:04.268Z,79.50
2023-09-08T22:39:31.254Z,79.70
2023-09-08T22:41:58.255Z,79.60
2023-09-08T22:44:25.181Z,79.70
2023-09-08T22:46:52.191Z,79.70
2023-09-08T22:49:19.151Z,80.00
2023-09-08T22:51:46.113Z,80.10
2023-09-08T22:54:13.109Z,80.20
2023-09-08T22:56:40.202Z,80.30
2023-09-08T22:59:07.137Z,80.40
2023-09-08T23:01:34.288Z,80.40
2023-09-08T23:04:01.482Z,80.40
2023-09-08T23:06:28.531Z,80.30
2023-09-08T23:08:55.516Z,80.50
2023-09-08T23:11:22.482Z,80.50
2023-09-08T23:13:49.577Z,80.60
2023-09-08T23:16:16.584Z,80.50
2023-09-08T23:18:43.564Z,80.60
2023-09-08T23:21:10.640Z,80.60
2023-09-08T23:23:37.824Z,80.60
2023-09-08T23:26:05.137Z,80.70
2023-09-08T23:28:32.326Z,80.80
2023-09-08T23:30:59.504Z,80.80
2023-09-08T23:33:26.627Z,80.80
2023-09-08T23:35:53.711Z,80.70
2023-09-08T23:38:20.772Z,80.70
2023-09-08T23:40:48.609Z,80.70
2023-09-08T23:43:15.784Z,80.90
2023-09-08T23:45:46.846Z,81.00
2023-09-08T23:48:14.054Z,80.80
2023-09-08T23:50:50.509Z,80.60
2023-09-08T23:53:17.953Z,80.90
2023-09-08T23:55:45.397Z,81.00
2023-09-08T23:58:12.574Z,81.10
